sensor_id;sensor_type;location;lat;lon;timestamp;pressure;altitude;pressure_sealevel;temperature;humidity
21111;BME280;10713;51.912;4.494;2023-12-29T00:01:30;100695.34;;;10.24;100.00
21111;BME280;10713;51.912;4.494;2023-12-29T00:03:56;100689.09;;;10.27;100.00
21111;BME280;10713;51.912;4.494;2023-12-29T00:06:21;100679.38;;;10.29;100.00
21111;BME280;10713;51.912;4.494;2023-12-29T00:08:47;100681.03;;;10.31;100.00
21111;BME280;10713;51.912;4.494;2023-12-29T00:11:22;100668.56;;;10.35;100.00
21111;BME280;10713;51.912;4.494;2023-12-29T00:13:47;100670.16;;;10.39;100.00
21111;BME280;10713;51.912;4.494;2023-12-29T00:16:14;100664.81;;;10.41;100.00
21111;BME280;10713;51.912;4.494;2023-12-29T00:18:40;100651.56;;;10.42;100.00
21111;BME280;10713;51.912;4.494;2023-12-29T00:21:05;100669.06;;;10.45;100.00
21111;BME280;10713;51.912;4.494;2023-12-29T00:23:31;100648.84;;;10.44;100.00
21111;BME280;10713;51.912;4.494;2023-12-29T00:25:56;100662.13;;;10.42;100.00
21111;BME280;10713;51.912;4.494;2023-12-29T00:28:22;100652.34;;;10.44;100.00
21111;BME280;10713;51.912;4.494;2023-12-29T00:30:47;100650.56;;;10.45;100.00
21111;BME280;10713;51.912;4.494;2023-12-29T00:33:12;100657.50;;;10.47;100.00
21111;BME280;10713;51.912;4.494;2023-12-29T00:35:38;100648.72;;;10.47;100.00
21111;BME280;10713;51.912;4.494;2023-12-29T00:38:06;100648.13;;;10.40;100.00
21111;BME280;10713;51.912;4.494;2023-12-29T00:40:32;100652.41;;;10.43;100.00
21111;BME280;10713;51.912;4.494;2023-12-29T00:43:00;100668.16;;;10.44;100.00
21111;BME280;10713;51.912;4.494;2023-12-29T00:45:25;100663.03;;;10.41;100.00
21111;BME280;10713;51.912;4.494;2023-12-29T00:47:50;100659.53;;;10.41;100.00
21111;BME280;10713;51.912;4.494;2023-12-29T00:50:17;100654.38;;;10.37;100.00
21111;BME280;10713;51.912;4.494;2023-12-29T00:52:42;100652.72;;;10.35;100.00
21111;BME280;10713;51.912;4.494;2023-12-29T00:55:08;100662.56;;;10.31;100.00
21111;BME280;10713;51.912;4.494;2023-12-29T00:57:33;100658.34;;;10.27;100.00
21111;BME280;10713;51.912;4.494;2023-12-29T01:00:00;100653.91;;;10.28;100.00
21111;BME280;10713;51.912;4.494;2023-12-29T01:02:25;100653.84;;;10.29;100.00
21111;BME280;10713;51.912;4.494;2023-12-29T01:04:50;100653.91;;;10.28;100.00
21111;BME280;10713;51.912;4.494;2023-12-29T01:07:16;100646.00;;;10.26;100.00
21111;BME280;10713;51.912;4.494;2023-12-29T01:09:41;100646.00;;;10.26;100.00
21111;BME280;10713;51.912;4.494;2023-12-29T01:12:06;100641.78;;;10.22;100.00
21111;BME280;10713;51.912;4.494;2023-12-29T01:14:32;100646.13;;;10.23;100.00
21111;BME280;10713;51.912;4.494;2023-12-29T01:16:57;100645.22;;;10.24;100.00
21111;BME280;10713;51.912;4.494;2023-12-29T01:19:22;100652.28;;;10.24;100.00
21111;BME280;10713;51.912;4.494;2023-12-29T01:21:48;100643.50;;;10.23;100.00
21111;BME280;10713;51.912;4.494;2023-12-29T01:24:13;100640.06;;;10.21;100.00
21111;BME280;10713;51.912;4.494;2023-12-29T01:26:39;100646.13;;;10.23;100.00
21111;BME280;10713;51.912;4.494;2023-12-29T01:29:05;100658.34;;;10.27;100.00
21111;BME280;10713;51.912;4.494;2023-12-29T01:31:31;100654.84;;;10.25;100.00
21111;BME280;10713;51.912;4.494;2023-12-29T01:33:57;100654.84;;;10.25;100.00
21111;BME280;10713;51.912;4.494;2023-12-29T01:36:22;100655.88;;;10.21;100.00
21111;BME280;10713;51.912;4.494;2023-12-29T01:38:48;100650.75;;;10.18;100.00
21111;BME280;10713;51.912;4.494;2023-12-29T01:41:13;100658.66;;;10.18;100.00
21111;BME280;10713;51.912;4.494;2023-12-29T01:46:25;100656.25;;;10.12;100.00
21111;BME280;10713;51.912;4.494;2023-12-29T01:48:51;100653.03;;;10.05;100.00
21111;BME280;10713;51.912;4.494;2023-12-29T01:51:17;100665.34;;;9.83;100.00
21111;BME280;10713;51.912;4.494;2023-12-29T01:53:45;100662.94;;;9.77;100.00
21111;BME280;10713;51.912;4.494;2023-12-29T01:56:11;100656.06;;;9.73;100.00
21111;BME280;10713;51.912;4.494;2023-12-29T01:58:37;100670.97;;;9.74;100.00
21111;BME280;10713;51.912;4.494;2023-12-29T02:01:03;100673.59;;;9.74;100.00
21111;BME280;10713;51.912;4.494;2023-12-29T02:03:29;100666.69;;;9.71;100.00
21111;BME280;10713;51.912;4.494;2023-12-29T02:05:55;100664.16;;;9.68;100.00
21111;BME280;10713;51.912;4.494;2023-12-29T02:08:23;100682.59;;;9.68;100.00
21111;BME280;10713;51.912;4.494;2023-12-29T02:10:49;100684.50;;;9.64;100.00
21111;BME280;10713;51.912;4.494;2023-12-29T02:13:14;100681.91;;;9.63;100.00
21111;BME280;10713;51.912;4.494;2023-12-29T02:15:40;100690.53;;;9.68;100.00
21111;BME280;10713;51.912;4.494;2023-12-29T02:18:07;100711.72;;;9.65;100.00
21111;BME280;10713;51.912;4.494;2023-12-29T02:20:33;100675.06;;;9.59;100.00
21111;BME280;10713;51.912;4.494;2023-12-29T02:22:58;100697.97;;;9.57;100.00
21111;BME280;10713;51.912;4.494;2023-12-29T02:25:24;100712.28;;;9.73;100.00
21111;BME280;10713;51.912;4.494;2023-12-29T02:28:04;100682.41;;;9.73;100.00
21111;BME280;10713;51.912;4.494;2023-12-29T02:30:41;100690.03;;;9.80;100.00
21111;BME280;10713;51.912;4.494;2023-12-29T02:33:10;100703.94;;;9.84;100.00
21111;BME280;10713;51.912;4.494;2023-12-29T02:35:41;100686.47;;;9.81;100.00
21111;BME280;10713;51.912;4.494;2023-12-29T02:38:07;100700.47;;;9.83;100.00
21111;BME280;10713;51.912;4.494;2023-12-29T02:40:33;100692.44;;;9.86;100.00
21111;BME280;10713;51.912;4.494;2023-12-29T02:42:58;100698.03;;;9.79;100.00
21111;BME280;10713;51.912;4.494;2023-12-29T02:45:24;100697.94;;;9.80;100.00
21111;BME280;10713;51.912;4.494;2023-12-29T02:47:49;100705.03;;;9.78;100.00
21111;BME280;10713;51.912;4.494;2023-12-29T02:50:15;100707.19;;;9.68;100.00
21111;BME280;10713;51.912;4.494;2023-12-29T02:52:41;100703.09;;;9.83;100.00
21111;BME280;10713;51.912;4.494;2023-12-29T02:55:07;100704.75;;;9.86;100.00
21111;BME280;10713;51.912;4.494;2023-12-29T02:57:32;100707.41;;;9.86;100.00
21111;BME280;10713;51.912;4.494;2023-12-29T02:59:58;100701.19;;;9.87;100.00
21111;BME280;10713;51.912;4.494;2023-12-29T03:02:23;100694.19;;;9.87;100.00
21111;BME280;10713;51.912;4.494;2023-12-29T03:04:49;100681.84;;;9.88;100.00
21111;BME280;10713;51.912;4.494;2023-12-29T03:07:14;100692.31;;;9.89;100.00
21111;BME280;10713;51.912;4.494;2023-12-29T03:09:40;100691.41;;;9.90;100.00
21111;BME280;10713;51.912;4.494;2023-12-29T03:12:05;100690.31;;;9.96;100.00
21111;BME280;10713;51.912;4.494;2023-12-29T03:14:31;100688.56;;;9.95;100.00
21111;BME280;10713;51.912;4.494;2023-12-29T03:16:56;100680.88;;;9.90;100.00
21111;BME280;10713;51.912;4.494;2023-12-29T03:19:22;100679.94;;;9.91;100.00
21111;BME280;10713;51.912;4.494;2023-12-29T03:21:48;100693.81;;;9.97;100.00
21111;BME280;10713;51.912;4.494;2023-12-29T03:24:13;100681.47;;;9.97;100.00
21111;BME280;10713;51.912;4.494;2023-12-29T03:26:38;100668.34;;;9.96;100.00
21111;BME280;10713;51.912;4.494;2023-12-29T03:29:04;100671.72;;;9.99;100.00
21111;BME280;10713;51.912;4.494;2023-12-29T03:31:29;100670.88;;;9.99;100.00
21111;BME280;10713;51.912;4.494;2023-12-29T03:33:55;100668.13;;;10.02;100.00
21111;BME280;10713;51.912;4.494;2023-12-29T03:36:20;100657.38;;;10.06;100.00
21111;BME280;10713;51.912;4.494;2023-12-29T03:38:45;100669.69;;;10.06;100.00
21111;BME280;10713;51.912;4.494;2023-12-29T03:41:11;100674.84;;;10.09;100.00
21111;BME280;10713;51.912;4.494;2023-12-29T03:43:36;100687.03;;;10.13;100.00
21111;BME280;10713;51.912;4.494;2023-12-29T03:46:01;100678.97;;;10.16;100.00
21111;BME280;10713;51.912;4.494;2023-12-29T03:48:27;100671.00;;;10.18;100.00
21111;BME280;10713;51.912;4.494;2023-12-29T03:50:52;100665.59;;;10.21;100.00
21111;BME280;10713;51.912;4.494;2023-12-29T03:53:17;100661.16;;;10.21;100.00
21111;BME280;10713;51.912;4.494;2023-12-29T03:55:44;100662.91;;;10.22;100.00
21111;BME280;10713;51.912;4.494;2023-12-29T03:58:10;100668.94;;;10.24;100.00
21111;BME280;10713;51.912;4.494;2023-12-29T04:00:36;100680.28;;;10.28;100.00
21111;BME280;10713;51.912;4.494;2023-12-29T04:03:01;100668.91;;;10.26;100.00
21111;BME280;10713;51.912;4.494;2023-12-29T04:05:26;100666.31;;;10.24;100.00
21111;BME280;10713;51.912;4.494;2023-12-29T04:07:52;100654.84;;;10.25;100.00
21111;BME280;10713;51.912;4.494;2023-12-29T04:10:17;100660.13;;;10.25;100.00
21111;BME280;10713;51.912;4.494;2023-12-29T04:12:42;100653.94;;;10.26;100.00
21111;BME280;10713;51.912;4.494;2023-12-29T04:15:08;100656.66;;;10.25;100.00
21111;BME280;10713;51.912;4.494;2023-12-29T04:17:34;100654.00;;;10.25;100.00
21111;BME280;10713;51.912;4.494;2023-12-29T04:19:59;100673.28;;;10.27;100.00
21111;BME280;10713;51.912;4.494;2023-12-29T04:22:25;100667.09;;;10.28;100.00
21111;BME280;10713;51.912;4.494;2023-12-29T04:24:51;100664.47;;;10.26;100.00
21111;BME280;10713;51.912;4.494;2023-12-29T04:27:17;100670.59;;;10.28;100.00
21111;BME280;10713;51.912;4.494;2023-12-29T04:29:43;100654.84;;;10.25;100.00
21111;BME280;10713;51.912;4.494;2023-12-29T04:32:08;100648.84;;;10.22;100.00
21111;BME280;10713;51.912;4.494;2023-12-29T04:34:34;100671.84;;;10.18;100.00
21111;BME280;10713;51.912;4.494;2023-12-29T04:36:59;100673.56;;;10.19;100.00
21111;BME280;10713;51.912;4.494;2023-12-29T04:39:24;100661.28;;;10.18;100.00
21111;BME280;10713;51.912;4.494;2023-12-29T04:41:50;100646.41;;;10.17;100.00
21111;BME280;10713;51.912;4.494;2023-12-29T04:44:15;100656.94;;;10.17;100.00
21111;BME280;10713;51.912;4.494;2023-12-29T04:46:40;100647.25;;;10.18;100.00
21111;BME280;10713;51.912;4.494;2023-12-29T04:49:06;100645.47;;;10.18;100.00
21111;BME280;10713;51.912;4.494;2023-12-29T04:51:31;100646.41;;;10.17;100.00
21111;BME280;10713;51.912;4.494;2023-12-29T04:53:56;100642.59;;;10.02;100.00
21111;BME280;10713;51.912;4.494;2023-12-29T04:56:22;100640.00;;;10.01;100.00
21111;BME280;10713;51.912;4.494;2023-12-29T04:58:48;100642.72;;;9.99;100.00
21111;BME280;10713;51.912;4.494;2023-12-29T05:01:14;100655.97;;;9.98;100.00
21111;BME280;10713;51.912;4.494;2023-12-29T05:03:39;100655.16;;;9.96;100.00
21111;BME280;10713;51.912;4.494;2023-12-29T05:06:04;100668.34;;;9.96;100.00
21111;BME280;10713;51.912;4.494;2023-12-29T05:08:30;100661.34;;;9.95;100.00
21111;BME280;10713;51.912;4.494;2023-12-29T05:10:55;100649.41;;;10.08;100.00
21111;BME280;10713;51.912;4.494;2023-12-29T05:13:20;100648.47;;;10.09;100.00
21111;BME280;10713;51.912;4.494;2023-12-29T05:15:46;100658.34;;;10.04;100.00
21111;BME280;10713;51.912;4.494;2023-12-29T05:18:11;100646.44;;;10.15;100.00
21111;BME280;10713;51.912;4.494;2023-12-29T05:20:37;100656.00;;;10.18;100.00
21111;BME280;10713;51.912;4.494;2023-12-29T05:23:02;100650.56;;;10.23;100.00
21111;BME280;10713;51.912;4.494;2023-12-29T05:25:28;100640.06;;;10.21;100.00
21111;BME280;10713;51.912;4.494;2023-12-29T05:27:53;100630.44;;;10.20;100.00
21111;BME280;10713;51.912;4.494;2023-12-29T05:30:18;100631.38;;;10.19;100.00
21111;BME280;10713;51.912;4.494;2023-12-29T05:32:44;100650.69;;;10.20;100.00
21111;BME280;10713;51.912;4.494;2023-12-29T05:35:09;100618.44;;;10.13;100.00
21111;BME280;10713;51.912;4.494;2023-12-29T05:37:35;100634.06;;;10.18;100.00
21111;BME280;10713;51.912;4.494;2023-12-29T05:40:00;100633.25;;;10.15;100.00
21111;BME280;10713;51.912;4.494;2023-12-29T05:42:25;100621.00;;;10.14;100.00
21111;BME280;10713;51.912;4.494;2023-12-29T05:44:51;100628.09;;;10.12;100.00
21111;BME280;10713;51.912;4.494;2023-12-29T05:47:17;100625.69;;;10.08;100.00
21111;BME280;10713;51.912;4.494;2023-12-29T05:49:43;100636.28;;;10.06;100.00
21111;BME280;10713;51.912;4.494;2023-12-29T05:52:08;100638.22;;;10.01;100.00
21111;BME280;10713;51.912;4.494;2023-12-29T05:54:34;100632.22;;;9.98;100.00
21111;BME280;10713;51.912;4.494;2023-12-29T05:57:00;100624.44;;;9.95;100.00
21111;BME280;10713;51.912;4.494;2023-12-29T05:59:25;100627.19;;;9.91;100.00
21111;BME280;10713;51.912;4.494;2023-12-29T06:01:51;100633.28;;;9.93;100.00
21111;BME280;10713;51.912;4.494;2023-12-29T06:04:16;100626.06;;;9.99;100.00
21111;BME280;10713;51.912;4.494;2023-12-29T06:06:42;100623.41;;;9.99;100.00
21111;BME280;10713;51.912;4.494;2023-12-29T06:09:11;100631.25;;;10.00;100.00
21111;BME280;10713;51.912;4.494;2023-12-29T06:11:37;100616.41;;;9.98;100.00
21111;BME280;10713;51.912;4.494;2023-12-29T06:14:02;100625.25;;;9.97;100.00
21111;BME280;10713;51.912;4.494;2023-12-29T06:16:28;100617.22;;;10.00;100.00
21111;BME280;10713;51.912;4.494;2023-12-29T06:18:55;100622.41;;;10.01;100.00
21111;BME280;10713;51.912;4.494;2023-12-29T06:21:20;100618.88;;;10.02;100.00
21111;BME280;10713;51.912;4.494;2023-12-29T06:23:46;100618.88;;;10.02;100.00
21111;BME280;10713;51.912;4.494;2023-12-29T06:26:16;100623.28;;;10.02;100.00
21111;BME280;10713;51.912;4.494;2023-12-29T06:28:42;100631.19;;;10.02;100.00
21111;BME280;10713;51.912;4.494;2023-12-29T06:31:07;100621.56;;;10.01;100.00
21111;BME280;10713;51.912;4.494;2023-12-29T06:33:33;100630.31;;;10.01;100.00
21111;BME280;10713;51.912;4.494;2023-12-29T06:35:58;100632.22;;;9.98;100.00
21111;BME280;10713;51.912;4.494;2023-12-29T06:38:23;100629.53;;;9.99;100.00
21111;BME280;10713;51.912;4.494;2023-12-29T06:40:49;100633.03;;;10.00;100.00
21111;BME280;10713;51.912;4.494;2023-12-29T06:43:14;100641.78;;;10.00;100.00
21111;BME280;10713;51.912;4.494;2023-12-29T06:45:40;100629.47;;;10.01;100.00
21111;BME280;10713;51.912;4.494;2023-12-29T06:48:05;100626.91;;;9.99;100.00
21111;BME280;10713;51.912;4.494;2023-12-29T06:50:31;100628.78;;;9.96;100.00
21111;BME280;10713;51.912;4.494;2023-12-29T06:52:56;100641.19;;;9.93;100.00
21111;BME280;10713;51.912;4.494;2023-12-29T06:55:22;100640.38;;;9.91;100.00
21111;BME280;10713;51.912;4.494;2023-12-29T06:57:47;100622.91;;;9.89;100.00
21111;BME280;10713;51.912;4.494;2023-12-29T07:00:13;100632.16;;;9.77;100.00
21111;BME280;10713;51.912;4.494;2023-12-29T07:02:39;100630.63;;;9.72;100.00
21111;BME280;10713;51.912;4.494;2023-12-29T07:05:06;100643.75;;;9.73;100.00
21111;BME280;10713;51.912;4.494;2023-12-29T07:07:31;100648.97;;;9.75;100.00
21111;BME280;10713;51.912;4.494;2023-12-29T07:09:57;100659.44;;;9.76;100.00
21111;BME280;10713;51.912;4.494;2023-12-29T07:12:22;100653.13;;;9.80;100.00
21111;BME280;10713;51.912;4.494;2023-12-29T07:14:47;100655.66;;;9.83;100.00
21111;BME280;10713;51.912;4.494;2023-12-29T07:17:13;100659.00;;;9.87;100.00
21111;BME280;10713;51.912;4.494;2023-12-29T07:19:38;100650.25;;;9.86;100.00
21111;BME280;10713;51.912;4.494;2023-12-29T07:22:04;100635.25;;;9.88;100.00
21111;BME280;10713;51.912;4.494;2023-12-29T07:24:32;100624.56;;;9.91;100.00
21111;BME280;10713;51.912;4.494;2023-12-29T07:26:58;100635.00;;;9.95;100.00
21111;BME280;10713;51.912;4.494;2023-12-29T07:29:23;100636.91;;;9.91;100.00
21111;BME280;10713;51.912;4.494;2023-12-29T07:31:49;100641.00;;;9.98;100.00
21111;BME280;10713;51.912;4.494;2023-12-29T07:34:14;100643.84;;;9.93;100.00
21111;BME280;10713;51.912;4.494;2023-12-29T07:36:40;100629.16;;;9.86;100.00
21111;BME280;10713;51.912;4.494;2023-12-29T07:39:06;100629.97;;;9.88;100.00
21111;BME280;10713;51.912;4.494;2023-12-29T07:41:32;100648.25;;;9.93;100.00
21111;BME280;10713;51.912;4.494;2023-12-29T07:43:57;100655.78;;;10.02;100.00
21111;BME280;10713;51.912;4.494;2023-12-29T07:46:26;100648.72;;;10.03;100.00
21111;BME280;10713;51.912;4.494;2023-12-29T07:48:52;100644.31;;;10.03;100.00
21111;BME280;10713;51.912;4.494;2023-12-29T07:51:18;100645.16;;;10.04;100.00
21111;BME280;10713;51.912;4.494;2023-12-29T07:53:43;100644.06;;;10.09;100.00
21111;BME280;10713;51.912;4.494;2023-12-29T07:56:10;100650.94;;;10.13;100.00
21111;BME280;10713;51.912;4.494;2023-12-29T07:58:35;100650.69;;;10.20;100.00
21111;BME280;10713;51.912;4.494;2023-12-29T08:01:01;100640.06;;;10.21;100.00
21111;BME280;10713;51.912;4.494;2023-12-29T08:03:26;100644.22;;;10.28;100.00
21111;BME280;10713;51.912;4.494;2023-12-29T08:05:52;100633.66;;;10.28;100.00
21111;BME280;10713;51.912;4.494;2023-12-29T08:08:17;100631.69;;;10.33;100.00
21111;BME280;10713;51.912;4.494;2023-12-29T08:10:42;100640.34;;;10.37;100.00
21111;BME280;10713;51.912;4.494;2023-12-29T08:13:08;100640.50;;;10.32;100.00
21111;BME280;10713;51.912;4.494;2023-12-29T08:15:35;100633.66;;;10.28;100.00
21111;BME280;10713;51.912;4.494;2023-12-29T08:18:00;100646.91;;;10.27;100.00
21111;BME280;10713;51.912;4.494;2023-12-29T08:20:26;100649.50;;;10.28;100.00
21111;BME280;10713;51.912;4.494;2023-12-29T08:22:51;100654.69;;;10.30;100.00
21111;BME280;10713;51.912;4.494;2023-12-29T08:25:17;100656.41;;;10.31;100.00
21111;BME280;10713;51.912;4.494;2023-12-29T08:27:42;100658.84;;;10.35;100.00
21111;BME280;10713;51.912;4.494;2023-12-29T08:30:08;100657.94;;;10.36;100.00
21111;BME280;10713;51.912;4.494;2023-12-29T08:32:34;100662.41;;;10.34;100.00
21111;BME280;10713;51.912;4.494;2023-12-29T08:35:00;100654.34;;;10.39;100.00
21111;BME280;10713;51.912;4.494;2023-12-29T08:37:25;100661.25;;;10.42;100.00
21111;BME280;10713;51.912;4.494;2023-12-29T08:39:50;100660.19;;;10.46;100.00
21111;BME280;10713;51.912;4.494;2023-12-29T08:42:16;100663.66;;;10.48;100.00
21111;BME280;10713;51.912;4.494;2023-12-29T08:44:41;100664.69;;;10.44;100.00
21111;BME280;10713;51.912;4.494;2023-12-29T08:47:07;100666.28;;;10.48;100.00
21111;BME280;10713;51.912;4.494;2023-12-29T08:49:35;100652.28;;;10.46;100.00
21111;BME280;10713;51.912;4.494;2023-12-29T08:52:00;100647.81;;;10.48;100.00
21111;BME280;10713;51.912;4.494;2023-12-29T08:54:25;100653.63;;;10.56;100.00
21111;BME280;10713;51.912;4.494;2023-12-29T08:56:51;100654.53;;;10.55;100.00
21111;BME280;10713;51.912;4.494;2023-12-29T08:59:16;100652.88;;;10.52;100.00
21111;BME280;10713;51.912;4.494;2023-12-29T09:01:41;100660.75;;;10.54;100.00
21111;BME280;10713;51.912;4.494;2023-12-29T09:04:07;100658.09;;;10.54;100.00
21111;BME280;10713;51.912;4.494;2023-12-29T09:06:32;100658.91;;;10.56;100.00
21111;BME280;10713;51.912;4.494;2023-12-29T09:08:57;100662.41;;;10.56;100.00
21111;BME280;10713;51.912;4.494;2023-12-29T09:11:23;100669.34;;;10.59;100.00
21111;BME280;10713;51.912;4.494;2023-12-29T09:13:48;100669.38;;;10.57;100.00
21111;BME280;10713;51.912;4.494;2023-12-29T09:16:14;100678.91;;;10.62;100.00
21111;BME280;10713;51.912;4.494;2023-12-29T09:18:39;100669.84;;;10.67;100.00
21111;BME280;10713;51.912;4.494;2023-12-29T09:21:04;100674.94;;;10.72;100.00
21111;BME280;10713;51.912;4.494;2023-12-29T09:23:30;100668.81;;;10.71;100.00
21111;BME280;10713;51.912;4.494;2023-12-29T09:25:55;100677.84;;;10.66;100.00
21111;BME280;10713;51.912;4.494;2023-12-29T09:28:20;100681.81;;;10.76;100.00
21111;BME280;10713;51.912;4.494;2023-12-29T09:30:46;100679.91;;;10.79;100.00
21111;BME280;10713;51.912;4.494;2023-12-29T09:33:11;100699.16;;;10.81;100.00
21111;BME280;10713;51.912;4.494;2023-12-29T09:35:38;100696.66;;;10.78;100.00
21111;BME280;10713;51.912;4.494;2023-12-29T09:38:03;100696.47;;;10.83;100.00
21111;BME280;10713;51.912;4.494;2023-12-29T09:40:29;100697.31;;;10.83;100.00
21111;BME280;10713;51.912;4.494;2023-12-29T09:42:55;100710.47;;;10.85;100.00
21111;BME280;10713;51.912;4.494;2023-12-29T09:45:23;100709.47;;;10.88;100.00
21111;BME280;10713;51.912;4.494;2023-12-29T09:47:51;100707.69;;;10.88;100.00
21111;BME280;10713;51.912;4.494;2023-12-29T09:50:17;100714.78;;;10.88;100.00
21111;BME280;10713;51.912;4.494;2023-12-29T09:52:44;100716.66;;;10.84;100.00
21111;BME280;10713;51.912;4.494;2023-12-29T09:55:12;100717.63;;;10.81;100.00
21111;BME280;10713;51.912;4.494;2023-12-29T09:57:38;100724.66;;;10.82;100.00
21111;BME280;10713;51.912;4.494;2023-12-29T10:00:05;100715.75;;;10.85;100.00
21111;BME280;10713;51.912;4.494;2023-12-29T10:02:31;100712.97;;;10.88;100.00
21111;BME280;10713;51.912;4.494;2023-12-29T10:04:56;100712.84;;;10.91;100.00
21111;BME280;10713;51.912;4.494;2023-12-29T10:07:25;100713.44;;;10.98;100.00
21111;BME280;10713;51.912;4.494;2023-12-29T10:09:58;100722.97;;;11.02;100.00
21111;BME280;10713;51.912;4.494;2023-12-29T10:12:24;100728.75;;;11.10;100.00
21111;BME280;10713;51.912;4.494;2023-12-29T10:20:06;100744.50;;;11.13;100.00
21111;BME280;10713;51.912;4.494;2023-12-29T10:22:51;100749.81;;;11.12;100.00
21111;BME280;10713;51.912;4.494;2023-12-29T10:25:17;100749.88;;;11.10;100.00
21111;BME280;10713;51.912;4.494;2023-12-29T10:27:42;100755.16;;;11.10;100.00
21111;BME280;10713;51.912;4.494;2023-12-29T10:30:09;100743.81;;;11.08;100.00
21111;BME280;10713;51.912;4.494;2023-12-29T10:32:37;100749.16;;;11.07;100.00
21111;BME280;10713;51.912;4.494;2023-12-29T10:35:11;100752.47;;;11.12;100.00
21111;BME280;10713;51.912;4.494;2023-12-29T10:37:37;100754.31;;;11.10;100.00
21111;BME280;10713;51.912;4.494;2023-12-29T10:40:03;100752.47;;;11.12;100.00
21111;BME280;10713;51.912;4.494;2023-12-29T10:42:29;100763.31;;;11.05;100.00
21111;BME280;10713;51.912;4.494;2023-12-29T10:45:08;100753.66;;;11.04;100.00
21111;BME280;10713;51.912;4.494;2023-12-29T10:47:34;100759.81;;;11.05;100.00
21111;BME280;10713;51.912;4.494;2023-12-29T10:50:04;100754.31;;;11.10;100.00
21111;BME280;10713;51.912;4.494;2023-12-29T10:52:31;100756.94;;;11.10;100.00
21111;BME280;10713;51.912;4.494;2023-12-29T10:55:10;100767.38;;;11.13;100.00
21111;BME280;10713;51.912;4.494;2023-12-29T10:57:39;100756.63;;;11.17;100.00
21111;BME280;10713;51.912;4.494;2023-12-29T11:00:06;100758.06;;;11.24;100.00
21111;BME280;10713;51.912;4.494;2023-12-29T11:02:33;100752.78;;;11.24;100.00
21111;BME280;10713;51.912;4.494;2023-12-29T11:05:03;100755.19;;;11.31;100.00
21111;BME280;10713;51.912;4.494;2023-12-29T11:10:06;100756.69;;;11.36;100.00
21111;BME280;10713;51.912;4.494;2023-12-29T11:12:33;100758.13;;;11.43;100.00
21111;BME280;10713;51.912;4.494;2023-12-29T11:15:01;100755.28;;;11.48;100.00
21111;BME280;10713;51.912;4.494;2023-12-29T11:17:29;100758.00;;;11.46;100.00
21111;BME280;10713;51.912;4.494;2023-12-29T11:19:55;100752.66;;;11.48;100.00
21111;BME280;10713;51.912;4.494;2023-12-29T11:22:23;100760.22;;;11.56;100.00
21111;BME280;10713;51.912;4.494;2023-12-29T11:24:49;100759.19;;;11.60;100.00
21111;BME280;10713;51.912;4.494;2023-12-29T11:27:16;100755.53;;;11.62;100.00
21111;BME280;10713;51.912;4.494;2023-12-29T11:29:42;100758.91;;;11.66;100.00
21111;BME280;10713;51.912;4.494;2023-12-29T11:32:13;100746.63;;;11.65;100.00
21111;BME280;10713;51.912;4.494;2023-12-29T11:34:51;100767.69;;;11.66;100.00
21111;BME280;10713;51.912;4.494;2023-12-29T11:40:23;100749.75;;;11.73;100.00
21111;BME280;10713;51.912;4.494;2023-12-29T11:42:54;100743.53;;;11.74;100.00
21111;BME280;10713;51.912;4.494;2023-12-29T11:45:29;100735.66;;;11.72;100.00
21111;BME280;10713;51.912;4.494;2023-12-29T11:47:57;100742.69;;;11.73;100.00
21111;BME280;10713;51.912;4.494;2023-12-29T11:50:33;100742.59;;;11.75;100.00
21111;BME280;10713;51.912;4.494;2023-12-29T11:52:59;100746.09;;;11.76;100.00
21111;BME280;10713;51.912;4.494;2023-12-29T11:55:34;100746.09;;;11.76;100.00
21111;BME280;10713;51.912;4.494;2023-12-29T11:58:00;100735.38;;;11.79;100.00
21111;BME280;10713;51.912;4.494;2023-12-29T12:00:45;100717.59;;;11.82;100.00
21111;BME280;10713;51.912;4.494;2023-12-29T12:03:16;100729.03;;;11.83;100.00
21111;BME280;10713;51.912;4.494;2023-12-29T12:05:45;100729.72;;;11.88;100.00
21111;BME280;10713;51.912;4.494;2023-12-29T12:08:26;100714.72;;;11.88;100.00
21111;BME280;10713;51.912;4.494;2023-12-29T12:10:52;100719.06;;;11.89;100.00
21111;BME280;10713;51.912;4.494;2023-12-29T12:16:18;100708.47;;;11.89;100.00
21111;BME280;10713;51.912;4.494;2023-12-29T12:18:55;100706.81;;;11.87;100.00
21111;BME280;10713;51.912;4.494;2023-12-29T12:21:23;100710.53;;;11.83;100.00
21111;BME280;10713;51.912;4.494;2023-12-29T12:23:50;100700.88;;;11.82;100.00
21111;BME280;10713;51.912;4.494;2023-12-29T12:26:18;100704.44;;;11.81;100.00
21111;BME280;10713;51.912;4.494;2023-12-29T12:28:45;100695.94;;;11.74;100.00
21111;BME280;10713;51.912;4.494;2023-12-29T12:31:12;100702.28;;;11.70;100.00
21111;BME280;10713;51.912;4.494;2023-12-29T12:33:38;100700.63;;;11.67;100.00
21111;BME280;10713;51.912;4.494;2023-12-29T12:36:03;100705.06;;;11.67;100.00
21111;BME280;10713;51.912;4.494;2023-12-29T12:38:29;100693.50;;;11.69;100.00
21111;BME280;10713;51.912;4.494;2023-12-29T12:40:57;100701.28;;;11.72;100.00
21111;BME280;10713;51.912;4.494;2023-12-29T12:43:25;100696.59;;;11.79;100.00
21111;BME280;10713;51.912;4.494;2023-12-29T12:45:59;100686.63;;;11.84;100.00
21111;BME280;10713;51.912;4.494;2023-12-29T12:48:41;100679.72;;;11.82;100.00
21111;BME280;10713;51.912;4.494;2023-12-29T12:51:09;100672.44;;;11.87;100.00
21111;BME280;10713;51.912;4.494;2023-12-29T12:53:39;100662.91;;;11.83;100.00
21111;BME280;10713;51.912;4.494;2023-12-29T12:56:06;100656.00;;;11.80;100.00